Time;durP1;ratioP1;P1;durP2;ratioP2;P2;SDS_P1;SDS_P2;PMS_P1;PMS_P2;Temp;Humidity;BMP_temperature;BMP_pressure;BME280_temperature;BME280_humidity;BME280_pressure;Samples;Min_cycle;Max_cycle;Signal;HPM_P1;HPM_P2
2022/06/29 00:00:23;;;;;;;4.03;3.47;;;24.70;40.30;;;;;;5073906;28;20410;-49
2022/06/29 00:02:49;;;;;;;3.43;3.00;;;24.70;40.70;;;;;;5074087;28;20755;-47
2022/06/29 00:05:17;;;;;;;4.00;3.17;;;24.70;40.60;;;;;;5073579;28;20978;-49
2022/06/29 00:07:44;;;;;;;3.73;2.83;;;24.70;40.40;;;;;;5073724;28;20418;-50
2022/06/29 00:10:12;;;;;;;6.47;2.93;;;24.60;40.40;;;;;;5073615;28;20431;-49
2022/06/29 00:12:39;;;;;;;3.13;2.37;;;24.60;40.40;;;;;;5073674;28;20403;-48
2022/06/29 00:15:06;;;;;;;2.83;2.50;;;24.50;41.20;;;;;;5073228;28;20426;-48
2022/06/29 00:17:34;;;;;;;4.10;3.00;;;24.50;40.50;;;;;;5073412;28;20483;-48
2022/06/29 00:20:02;;;;;;;3.50;3.10;;;24.40;40.00;;;;;;5073532;28;20414;-49
2022/06/29 00:22:28;;;;;;;4.00;2.80;;;24.40;40.40;;;;;;5073577;28;20426;-50
2022/06/29 00:24:54;;;;;;;3.60;2.80;;;24.40;40.50;;;;;;5073510;28;20469;-49
2022/06/29 00:27:20;;;;;;;6.23;2.93;;;24.40;40.70;;;;;;5072443;28;20470;-47
2022/06/29 00:29:47;;;;;;;2.77;2.50;;;24.40;41.00;;;;;;5073130;28;20407;-47
2022/06/29 00:32:13;;;;;;;3.00;2.50;;;24.50;40.70;;;;;;5072300;28;20402;-48
2022/06/29 00:34:39;;;;;;;3.20;2.90;;;24.50;41.30;;;;;;5073808;28;20479;-49
2022/06/29 00:37:05;;;;;;;3.43;3.13;;;24.50;40.80;;;;;;5072928;28;20402;-49
2022/06/29 00:39:32;;;;;;;4.80;2.97;;;24.50;40.50;;;;;;5073120;28;20403;-49
2022/06/29 00:41:58;;;;;;;3.73;2.90;;;24.50;40.30;;;;;;5073888;28;20411;-49
2022/06/29 00:44:24;;;;;;;2.60;2.40;;;24.50;40.20;;;;;;5074007;28;20466;-48
2022/06/29 00:46:53;;;;;;;2.67;2.47;;;24.50;40.30;;;;;;5072749;28;20472;-48
2022/06/29 00:49:21;;;;;;;3.80;2.37;;;24.50;40.80;;;;;;5073156;28;20941;-49
2022/06/29 00:51:49;;;;;;;3.50;3.10;;;24.50;41.30;;;;;;5072730;28;20402;-49
2022/06/29 00:54:23;;;;;;;3.73;3.00;;;24.60;41.20;;;;;;5073230;28;20434;-48
2022/06/29 00:56:50;;;;;;;3.63;3.20;;;24.50;41.90;;;;;;5073440;28;20423;-49
2022/06/29 00:59:24;;;;;;;3.80;2.83;;;24.60;41.40;;;;;;5073690;28;20480;-48
2022/06/29 01:01:51;;;;;;;3.60;2.80;;;24.50;41.40;;;;;;5072690;28;20493;-48
2022/06/29 01:04:18;;;;;;;4.10;3.70;;;24.50;41.40;;;;;;5072728;28;20462;-47
2022/06/29 01:06:44;;;;;;;3.70;3.30;;;24.50;41.40;;;;;;5073728;28;20502;-48
2022/06/29 01:09:12;;;;;;;4.97;2.90;;;24.60;42.10;;;;;;5073801;28;20165;-50
2022/06/29 01:11:38;;;;;;;3.40;2.90;;;24.70;41.20;;;;;;5073285;28;20463;-49
2022/06/29 01:14:03;;;;;;;3.50;2.37;;;24.70;40.80;;;;;;5072782;28;20485;-47
2022/06/29 01:16:30;;;;;;;3.43;3.10;;;24.70;40.70;;;;;;5072403;28;20203;-50
2022/06/29 01:18:56;;;;;;;5.03;2.93;;;24.70;40.80;;;;;;5073589;28;20177;-49
2022/06/29 01:21:23;;;;;;;3.30;3.00;;;24.70;40.90;;;;;;5073169;28;20406;-49
2022/06/29 01:23:49;;;;;;;4.30;3.27;;;24.80;40.90;;;;;;5071342;28;20184;-48
2022/06/29 01:26:15;;;;;;;3.37;3.07;;;24.80;41.60;;;;;;5074351;28;20434;-48
2022/06/29 01:28:44;;;;;;;3.00;2.30;;;24.80;41.00;;;;;;5077207;28;20429;-49
2022/06/29 01:31:15;;;;;;;3.87;3.37;;;24.80;41.10;;;;;;5076961;28;20541;-48
2022/06/29 01:33:41;;;;;;;3.53;3.23;;;24.90;41.60;;;;;;5076646;28;20890;-48
2022/06/29 01:36:07;;;;;;;3.77;3.07;;;24.90;41.60;;;;;;5076105;28;20513;-49
2022/06/29 01:38:36;;;;;;;4.03;3.63;;;24.90;41.40;;;;;;5075686;28;20415;-48
2022/06/29 01:41:07;;;;;;;3.07;2.77;;;24.90;42.00;;;;;;5076507;28;20411;-49
2022/06/29 01:43:33;;;;;;;3.63;3.30;;;24.90;42.40;;;;;;5076532;28;20391;-51
2022/06/29 01:45:58;;;;;;;3.70;2.80;;;24.90;42.00;;;;;;5076056;28;20479;-49
2022/06/29 01:48:24;;;;;;;3.43;2.90;;;24.90;42.50;;;;;;5076688;28;20172;-47
2022/06/29 01:50:50;;;;;;;4.53;4.10;;;24.90;42.60;;;;;;5075634;28;20477;-50
2022/06/29 01:53:16;;;;;;;5.23;4.73;;;24.90;42.90;;;;;;5076834;28;20165;-49
2022/06/29 01:55:46;;;;;;;4.10;3.20;;;24.90;42.90;;;;;;5075772;28;20492;-48
2022/06/29 01:58:12;;;;;;;4.03;3.60;;;24.90;43.00;;;;;;5075178;28;20426;-49
2022/06/29 02:00:38;;;;;;;4.13;3.10;;;24.90;43.40;;;;;;5075137;28;20411;-48
2022/06/29 02:03:04;;;;;;;4.00;3.60;;;24.80;43.30;;;;;;5075053;28;20925;-49
2022/06/29 02:05:30;;;;;;;4.83;3.93;;;24.90;43.40;;;;;;5074825;28;20541;-47
2022/06/29 02:07:56;;;;;;;3.90;3.10;;;24.80;43.40;;;;;;5075435;28;20453;-48
2022/06/29 02:10:22;;;;;;;3.57;3.03;;;24.80;43.40;;;;;;5074908;28;20207;-49
2022/06/29 02:12:48;;;;;;;3.40;3.00;;;24.80;43.30;;;;;;5075032;28;20435;-49
2022/06/29 02:15:14;;;;;;;4.00;3.27;;;24.80;43.10;;;;;;5074937;28;20457;-48
2022/06/29 02:17:40;;;;;;;3.90;3.30;;;24.80;43.30;;;;;;5075011;28;20411;-50
2022/06/29 02:20:06;;;;;;;4.77;4.07;;;24.80;43.10;;;;;;5074914;28;20486;-49
2022/06/29 02:22:34;;;;;;;3.80;3.27;;;24.80;43.00;;;;;;5075813;28;20264;-49
2022/06/29 02:25:00;;;;;;;4.00;3.60;;;24.80;43.20;;;;;;5074417;28;20807;-49
2022/06/29 02:27:26;;;;;;;3.63;2.90;;;24.80;43.10;;;;;;5074501;28;20453;-48
2022/06/29 02:29:52;;;;;;;3.80;3.33;;;24.80;43.00;;;;;;5074723;28;20196;-48
2022/06/29 02:35:02;;;;;;;3.70;3.03;;;24.80;43.00;;;;;;5075540;28;20272;-48
2022/06/29 02:37:28;;;;;;;4.50;3.50;;;24.80;42.90;;;;;;5074301;28;20465;-49
2022/06/29 02:39:54;;;;;;;3.50;2.90;;;24.80;42.70;;;;;;5074424;28;20493;-49
2022/06/29 02:42:20;;;;;;;7.37;3.60;;;24.80;42.60;;;;;;5074575;28;20172;-48
2022/06/29 02:44:45;;;;;;;4.57;3.30;;;24.80;42.70;;;;;;5074277;28;20686;-48
2022/06/29 02:47:12;;;;;;;4.30;3.87;;;24.80;43.30;;;;;;5074779;28;20407;-49
2022/06/29 02:49:38;;;;;;;4.27;3.80;;;24.70;43.40;;;;;;5075760;28;20196;-48
2022/06/29 02:52:04;;;;;;;3.90;3.50;;;24.80;43.70;;;;;;5074058;28;20914;-48
2022/06/29 02:54:30;;;;;;;3.40;3.10;;;24.70;43.90;;;;;;5074634;28;20421;-50
2022/06/29 02:56:56;;;;;;;3.30;3.00;;;24.70;43.80;;;;;;5074145;28;20961;-49
2022/06/29 02:59:22;;;;;;;4.10;3.30;;;24.70;43.90;;;;;;5074506;28;20406;-48
2022/06/29 03:01:49;;;;;;;3.53;3.17;;;24.70;43.50;;;;;;5075283;28;20886;-48
2022/06/29 03:04:15;;;;;;;4.10;2.80;;;24.70;43.90;;;;;;5074538;28;20837;-49
2022/06/29 03:06:41;;;;;;;5.03;3.57;;;24.70;44.00;;;;;;5073431;28;20410;-49
2022/06/29 03:09:08;;;;;;;5.23;3.70;;;24.70;44.30;;;;;;5074234;28;20498;-50
2022/06/29 03:11:34;;;;;;;3.93;3.53;;;24.70;44.30;;;;;;5073875;28;20407;-48
2022/06/29 03:13:59;;;;;;;4.00;3.30;;;24.70;43.90;;;;;;5073813;28;20407;-49
2022/06/29 03:16:25;;;;;;;4.83;4.13;;;24.70;43.90;;;;;;5072724;28;20415;-50
2022/06/29 03:18:51;;;;;;;4.90;4.07;;;24.80;43.40;;;;;;5073817;28;20176;-49
2022/06/29 03:21:18;;;;;;;5.63;4.50;;;24.80;43.10;;;;;;5074003;28;20399;-48
2022/06/29 03:23:44;;;;;;;6.40;4.10;;;24.80;43.00;;;;;;5073572;28;20449;-48
2022/06/29 03:26:11;;;;;;;5.10;4.10;;;24.80;43.20;;;;;;5072798;28;20442;-50
2022/06/29 03:28:37;;;;;;;4.80;3.70;;;24.70;43.10;;;;;;5073151;28;20915;-48
2022/06/29 03:31:04;;;;;;;3.93;3.53;;;24.80;43.10;;;;;;5072418;28;20403;-48
2022/06/29 03:33:30;;;;;;;10.97;4.57;;;24.80;43.20;;;;;;5072417;28;20418;-48
2022/06/29 03:35:56;;;;;;;3.80;3.40;;;24.80;44.10;;;;;;5072062;28;20431;-49
2022/06/29 03:38:22;;;;;;;4.87;4.40;;;24.80;43.20;;;;;;5072387;28;20444;-49
2022/06/29 03:40:48;;;;;;;4.30;3.90;;;24.80;43.30;;;;;;5072355;28;20411;-49
2022/06/29 03:43:13;;;;;;;4.23;3.83;;;24.80;43.30;;;;;;5072325;28;20399;-48
2022/06/29 03:45:39;;;;;;;4.70;4.30;;;24.80;43.40;;;;;;5071910;28;20197;-48
2022/06/29 03:48:06;;;;;;;7.87;4.60;;;24.80;43.40;;;;;;5072250;28;20403;-49
2022/06/29 03:50:33;;;;;;;5.20;4.53;;;24.80;43.40;;;;;;5071553;28;20198;-49
2022/06/29 03:52:59;;;;;;;5.27;3.83;;;24.80;43.40;;;;;;5072182;28;21171;-50
2022/06/29 03:55:25;;;;;;;5.53;4.93;;;24.80;43.30;;;;;;5072002;28;20522;-49
2022/06/29 03:57:51;;;;;;;5.03;4.53;;;24.80;43.20;;;;;;5071997;28;20255;-49
2022/06/29 04:00:17;;;;;;;5.97;4.50;;;24.90;43.40;;;;;;5072077;28;20198;-49
2022/06/29 04:02:43;;;;;;;5.77;5.07;;;24.80;43.30;;;;;;5071032;28;20181;-49
2022/06/29 04:05:09;;;;;;;4.77;4.10;;;24.80;43.40;;;;;;5071788;28;20459;-49
2022/06/29 04:07:35;;;;;;;5.27;4.77;;;24.80;43.60;;;;;;5071810;28;20890;-49
2022/06/29 04:10:02;;;;;;;6.43;5.80;;;24.80;44.40;;;;;;5071952;28;20402;-48
2022/06/29 04:12:34;;;;;;;5.70;5.10;;;24.80;44.10;;;;;;5071950;28;20391;-49
2022/06/29 04:14:59;;;;;;;5.30;4.40;;;24.70;43.90;;;;;;5071728;28;20465;-49
2022/06/29 04:17:25;;;;;;;6.20;4.60;;;24.70;44.40;;;;;;5071484;28;20857;-50
2022/06/29 04:19:51;;;;;;;5.00;4.50;;;24.70;44.20;;;;;;5071772;28;20406;-49
2022/06/29 04:22:21;;;;;;;5.57;4.50;;;24.70;44.60;;;;;;5071740;28;20173;-49
2022/06/29 04:24:47;;;;;;;5.27;4.47;;;24.70;45.10;;;;;;5027476;28;1263361;-49
2022/06/29 04:27:13;;;;;;;5.20;4.70;;;24.70;44.70;;;;;;5070826;28;20471;-48
2022/06/29 04:29:39;;;;;;;7.03;5.40;;;24.70;44.80;;;;;;5072332;28;20501;-49
2022/06/29 04:32:05;;;;;;;5.60;4.30;;;24.70;45.00;;;;;;5072184;28;20569;-50
2022/06/29 04:34:31;;;;;;;6.67;5.13;;;24.70;45.40;;;;;;5072168;28;20196;-50
2022/06/29 04:36:57;;;;;;;5.63;5.13;;;24.70;45.60;;;;;;5071991;28;20407;-49
2022/06/29 04:39:23;;;;;;;4.20;3.70;;;24.70;45.70;;;;;;5072225;28;20403;-50
2022/06/29 04:41:52;;;;;;;9.40;5.33;;;24.70;45.30;;;;;;5072435;28;20414;-50
2022/06/29 04:44:17;;;;;;;8.43;6.00;;;24.70;45.80;;;;;;5072011;28;20857;-49
2022/06/29 04:46:43;;;;;;;6.87;6.27;;;24.60;45.80;;;;;;5071841;28;20414;-51
2022/06/29 04:49:09;;;;;;;7.80;5.60;;;24.60;45.70;;;;;;5072062;28;20193;-48
2022/06/29 04:51:35;;;;;;;7.23;6.43;;;24.60;46.20;;;;;;5072081;28;20494;-49
2022/06/29 04:54:02;;;;;;;5.90;5.30;;;24.60;46.00;;;;;;5071992;28;20413;-52
2022/06/29 04:56:33;;;;;;;5.83;5.30;;;24.60;46.20;;;;;;5071811;28;20402;-49
2022/06/29 04:59:00;;;;;;;5.13;4.63;;;24.60;46.40;;;;;;5072109;28;20502;-49
2022/06/29 05:01:28;;;;;;;10.10;5.50;;;24.60;46.30;;;;;;5071281;28;20835;-49
2022/06/29 05:03:55;;;;;;;6.17;5.57;;;24.60;47.10;;;;;;5072240;28;20431;-49
2022/06/29 05:06:21;;;;;;;9.03;8.23;;;24.60;46.80;;;;;;5071769;28;20532;-49
2022/06/29 05:08:51;;;;;;;6.97;6.10;;;24.60;47.20;;;;;;5072673;28;20503;-48
2022/06/29 05:11:18;;;;;;;5.80;5.30;;;24.60;47.30;;;;;;5072698;28;20407;-51
2022/06/29 05:13:45;;;;;;;7.90;6.13;;;24.50;47.30;;;;;;5072186;28;20962;-48
2022/06/29 05:16:11;;;;;;;8.07;5.47;;;24.50;47.30;;;;;;5072038;28;20491;-49
2022/06/29 05:18:39;;;;;;;6.30;4.73;;;24.50;47.40;;;;;;5071927;28;20505;-50
2022/06/29 05:21:10;;;;;;;7.80;5.20;;;24.50;47.30;;;;;;5071977;28;20483;-47
2022/06/29 05:23:36;;;;;;;5.90;5.30;;;24.50;47.30;;;;;;5072062;28;20418;-48
2022/06/29 05:26:01;;;;;;;7.50;5.87;;;24.50;47.40;;;;;;5071275;28;20493;-49
2022/06/29 05:28:27;;;;;;;5.83;4.87;;;24.60;47.40;;;;;;5071681;28;20903;-47
2022/06/29 05:30:53;;;;;;;5.70;4.97;;;24.60;47.50;;;;;;5071872;28;20453;-48
2022/06/29 05:33:20;;;;;;;6.30;4.93;;;24.60;47.10;;;;;;5071744;28;20470;-49
2022/06/29 05:35:45;;;;;;;5.40;4.50;;;24.60;47.10;;;;;;5071366;28;20199;-48
2022/06/29 05:38:11;;;;;;;6.80;5.10;;;24.60;47.20;;;;;;5071715;28;20407;-49
2022/06/29 05:40:37;;;;;;;5.37;4.80;;;24.60;47.20;;;;;;5071840;28;20176;-47
2022/06/29 05:43:03;;;;;;;6.40;4.63;;;24.60;47.30;;;;;;5071629;28;20433;-49
2022/06/29 05:45:30;;;;;;;9.03;5.43;;;24.70;47.50;;;;;;5071604;28;21338;-48
2022/06/29 05:47:56;;;;;;;5.33;4.73;;;24.70;47.70;;;;;;5071542;28;20410;-48
2022/06/29 05:50:23;;;;;;;6.10;4.80;;;24.70;47.80;;;;;;5071545;28;20403;-48
2022/06/29 05:52:49;;;;;;;7.23;4.63;;;24.70;47.30;;;;;;5071630;28;20412;-47
2022/06/29 05:55:15;;;;;;;5.47;4.13;;;24.70;47.40;;;;;;5071318;28;20505;-47
2022/06/29 05:57:41;;;;;;;4.90;4.30;;;24.60;47.30;;;;;;5071007;28;20407;-47
2022/06/29 06:00:10;;;;;;;5.20;3.90;;;24.50;47.70;;;;;;5082245;28;20410;-49
2022/06/29 06:02:35;;;;;;;6.43;3.90;;;24.60;47.30;;;;;;5091964;28;20418;-48
2022/06/29 06:05:01;;;;;;;22.60;18.53;;;24.60;47.30;;;;;;5091673;28;20469;-47
2022/06/29 06:07:27;;;;;;;5.80;3.77;;;24.60;47.60;;;;;;5091597;28;20210;-49
2022/06/29 06:09:53;;;;;;;6.43;4.20;;;24.60;47.30;;;;;;5091383;28;20484;-48
2022/06/29 06:12:19;;;;;;;4.90;4.33;;;24.50;47.30;;;;;;5092486;28;20247;-47
2022/06/29 06:14:45;;;;;;;4.87;3.53;;;24.50;47.20;;;;;;5095121;28;20184;-48
2022/06/29 06:17:10;;;;;;;5.23;4.30;;;24.50;47.10;;;;;;5095339;28;20175;-50
2022/06/29 06:19:36;;;;;;;4.07;3.13;;;24.50;46.90;;;;;;5095377;28;20211;-47
2022/06/29 06:22:02;;;;;;;5.97;3.10;;;24.50;46.90;;;;;;5094321;28;20413;-48
2022/06/29 06:24:28;;;;;;;3.57;3.27;;;24.50;46.90;;;;;;5093343;28;20488;-48
2022/06/29 06:26:54;;;;;;;4.60;3.80;;;24.50;46.90;;;;;;5095130;28;20406;-48
2022/06/29 06:29:20;;;;;;;3.77;3.17;;;24.40;46.90;;;;;;5095402;28;20513;-48
2022/06/29 06:31:46;;;;;;;4.60;3.03;;;24.50;47.00;;;;;;5095397;28;20443;-48
2022/06/29 06:34:12;;;;;;;3.07;2.73;;;24.40;47.20;;;;;;5094862;28;20631;-48
2022/06/29 06:36:37;;;;;;;5.27;2.93;;;24.40;47.10;;;;;;5094414;28;20459;-49
2022/06/29 06:39:03;;;;;;;4.47;3.40;;;24.40;47.10;;;;;;5094373;28;20406;-50
2022/06/29 06:41:29;;;;;;;5.67;3.47;;;24.40;47.40;;;;;;5094860;28;20180;-50
2022/06/29 06:43:57;;;;;;;4.97;3.33;;;24.30;47.10;;;;;;5094665;28;20168;-49
2022/06/29 06:46:24;;;;;;;3.30;2.90;;;24.30;47.30;;;;;;5094503;28;20632;-48
2022/06/29 06:48:50;;;;;;;4.20;2.77;;;24.30;47.30;;;;;;5094739;28;20413;-49
2022/06/29 06:51:18;;;;;;;6.80;5.00;;;24.30;47.30;;;;;;5094696;28;20410;-49
2022/06/29 06:53:45;;;;;;;8.30;7.53;;;24.30;47.40;;;;;;5094458;28;20901;-48
2022/06/29 06:56:10;;;;;;;7.67;6.90;;;24.30;47.40;;;;;;5094347;28;20546;-48
2022/06/29 06:58:36;;;;;;;5.30;4.40;;;24.30;47.40;;;;;;5094362;28;20412;-49
2022/06/29 07:01:06;;;;;;;5.57;4.53;;;24.30;47.30;;;;;;5094716;28;20172;-49
2022/06/29 07:03:35;;;;;;;3.67;2.90;;;24.40;47.40;;;;;;5094188;28;20176;-49
2022/06/29 07:06:09;;;;;;;3.63;3.10;;;24.30;47.50;;;;;;5093691;28;20465;-47
2022/06/29 07:08:37;;;;;;;5.57;2.97;;;24.30;47.40;;;;;;5094253;28;20387;-48
2022/06/29 07:11:04;;;;;;;4.57;3.57;;;24.40;47.40;;;;;;5094160;28;20987;-46
2022/06/29 07:13:33;;;;;;;3.80;3.40;;;24.30;47.40;;;;;;5094252;28;20401;-49
2022/06/29 07:15:59;;;;;;;4.80;4.00;;;24.40;47.50;;;;;;5094128;28;20432;-49
2022/06/29 07:18:25;;;;;;;11.50;5.67;;;24.50;47.40;;;;;;5094048;28;20918;-49
2022/06/29 07:20:51;;;;;;;9.73;5.90;;;24.60;47.30;;;;;;5093819;28;20405;-49
2022/06/29 07:23:17;;;;;;;8.73;5.10;;;24.60;47.30;;;;;;5094472;28;20471;-49
2022/06/29 07:25:43;;;;;;;6.67;4.93;;;24.70;47.50;;;;;;5092636;28;20268;-47
2022/06/29 07:28:09;;;;;;;4.47;3.97;;;24.70;47.30;;;;;;5094115;28;20414;-49
2022/06/29 07:30:35;;;;;;;4.57;3.90;;;24.70;47.50;;;;;;5093515;28;20206;-49
2022/06/29 07:33:00;;;;;;;6.60;4.47;;;24.70;47.40;;;;;;5093619;28;20414;-47
2022/06/29 07:35:26;;;;;;;3.80;3.27;;;24.80;47.40;;;;;;5093551;28;20288;-47
2022/06/29 07:37:53;;;;;;;6.27;4.47;;;24.80;47.40;;;;;;5093491;28;20179;-48
2022/06/29 07:40:19;;;;;;;4.50;4.10;;;24.80;47.70;;;;;;5093559;28;20770;-47
2022/06/29 07:42:45;;;;;;;5.27;3.73;;;24.80;48.20;;;;;;5093724;28;20421;-49
2022/06/29 07:45:12;;;;;;;4.03;3.60;;;24.80;47.90;;;;;;5093367;28;20457;-49
2022/06/29 07:47:39;;;;;;;4.50;4.10;;;24.80;48.00;;;;;;5093412;28;20394;-49
2022/06/29 07:50:06;;;;;;;4.90;4.23;;;24.80;47.80;;;;;;5093306;28;20518;-48
2022/06/29 07:52:33;;;;;;;5.20;4.50;;;24.80;47.80;;;;;;5094211;28;20430;-50
2022/06/29 07:55:00;;;;;;;5.47;4.57;;;24.80;47.80;;;;;;5093808;28;20911;-50
2022/06/29 07:57:26;;;;;;;7.90;5.33;;;24.80;47.80;;;;;;5094556;28;20407;-49
2022/06/29 07:59:51;;;;;;;5.50;4.30;;;24.80;47.80;;;;;;5093337;28;20770;-49
2022/06/29 08:02:18;;;;;;;6.10;4.90;;;24.80;47.80;;;;;;5093070;28;20172;-49
2022/06/29 08:04:43;;;;;;;6.20;4.20;;;24.80;47.80;;;;;;5092816;28;20461;-47
2022/06/29 08:07:09;;;;;;;4.70;4.10;;;24.90;47.90;;;;;;5092993;28;20409;-46
2022/06/29 08:09:35;;;;;;;6.67;4.70;;;24.80;47.80;;;;;;5092892;28;20200;-48
2022/06/29 08:12:02;;;;;;;5.27;4.50;;;24.80;47.80;;;;;;5092953;28;20176;-48
2022/06/29 08:14:28;;;;;;;4.97;4.50;;;24.80;47.80;;;;;;5092661;28;20198;-49
2022/06/29 08:16:54;;;;;;;5.33;4.83;;;24.80;47.80;;;;;;5092360;28;20928;-49
2022/06/29 08:19:20;;;;;;;4.80;3.63;;;24.90;48.20;;;;;;5092041;28;20405;-49
2022/06/29 08:21:46;;;;;;;6.00;4.97;;;24.90;47.80;;;;;;5092677;28;20433;-47
2022/06/29 08:24:11;;;;;;;6.37;5.00;;;24.90;48.60;;;;;;5092558;28;20194;-50
2022/06/29 08:26:37;;;;;;;5.80;4.40;;;24.90;48.00;;;;;;5092282;28;20438;-48
2022/06/29 08:29:03;;;;;;;39.00;26.07;;;25.00;47.90;;;;;;5092580;28;20172;-50
2022/06/29 08:31:30;;;;;;;11.87;9.90;;;25.00;48.00;;;;;;5092200;28;20171;-48
2022/06/29 08:33:56;;;;;;;7.10;6.00;;;25.00;47.90;;;;;;5092353;28;20546;-50
2022/06/29 08:36:22;;;;;;;6.00;4.93;;;25.00;47.90;;;;;;5091650;28;20517;-48
2022/06/29 08:38:48;;;;;;;5.43;4.93;;;25.10;47.80;;;;;;5092332;28;20178;-49
2022/06/29 08:41:15;;;;;;;5.70;5.10;;;25.20;47.80;;;;;;5092302;28;20896;-48
2022/06/29 08:43:42;;;;;;;6.17;5.23;;;25.20;47.50;;;;;;5092340;28;20413;-50
2022/06/29 08:46:11;;;;;;;5.50;4.67;;;25.30;47.40;;;;;;5091689;28;20461;-48
2022/06/29 08:48:37;;;;;;;16.67;10.87;;;25.40;47.30;;;;;;5092164;28;20912;-50
2022/06/29 08:51:05;;;;;;;7.20;6.07;;;25.40;47.30;;;;;;5092096;28;20409;-48
2022/06/29 08:53:33;;;;;;;11.10;9.63;;;25.40;47.20;;;;;;5092294;28;20172;-50
2022/06/29 08:56:00;;;;;;;11.33;10.23;;;25.40;47.40;;;;;;5091974;28;20449;-49
2022/06/29 08:58:27;;;;;;;7.40;6.43;;;25.50;47.30;;;;;;5092187;28;20930;-49
2022/06/29 09:00:53;;;;;;;6.77;5.97;;;25.50;47.30;;;;;;5091987;28;20414;-48
2022/06/29 09:03:21;;;;;;;7.07;6.33;;;25.70;47.40;;;;;;5091985;28;20440;-49
2022/06/29 09:05:48;;;;;;;5.80;5.10;;;25.70;47.20;;;;;;5091298;28;20544;-50
2022/06/29 09:08:18;;;;;;;6.20;5.50;;;25.70;47.00;;;;;;5091961;28;20402;-48
2022/06/29 09:10:45;;;;;;;7.03;6.13;;;25.80;47.00;;;;;;5091923;28;20451;-49
2022/06/29 09:13:11;;;;;;;7.30;6.00;;;25.80;46.80;;;;;;5091998;28;20438;-48
2022/06/29 09:15:38;;;;;;;7.80;7.00;;;25.80;46.90;;;;;;5092070;28;20436;-47
2022/06/29 09:18:25;;;;;;;6.50;5.87;;;25.80;46.90;;;;;;5092251;28;20413;-50
2022/06/29 09:20:56;;;;;;;7.00;6.03;;;25.80;46.80;;;;;;5091833;28;20911;-49
2022/06/29 09:23:23;;;;;;;6.37;5.77;;;25.70;47.00;;;;;;5092251;28;20484;-49
2022/06/29 09:25:49;;;;;;;8.53;6.90;;;25.70;47.10;;;;;;5091468;28;20469;-49
2022/06/29 09:28:19;;;;;;;8.30;6.23;;;25.70;47.10;;;;;;5091911;28;20413;-49
2022/06/29 09:30:45;;;;;;;9.47;6.33;;;25.70;47.10;;;;;;5091911;28;20909;-49
2022/06/29 09:33:11;;;;;;;9.07;7.73;;;25.60;47.30;;;;;;5092060;28;20451;-49
2022/06/29 09:35:38;;;;;;;8.43;6.27;;;25.50;47.40;;;;;;5091363;28;20192;-50
2022/06/29 09:38:22;;;;;;;7.63;6.40;;;25.50;47.40;;;;;;5091564;28;20175;-50
2022/06/29 09:41:24;;;;;;;7.33;5.83;;;25.50;47.50;;;;;;5091137;28;20827;-48
2022/06/29 09:43:50;;;;;;;7.00;6.20;;;25.50;47.50;;;;;;5085070;28;20421;-49
2022/06/29 09:46:17;;;;;;;8.43;6.47;;;25.50;47.70;;;;;;5088693;28;20457;-50
2022/06/29 09:48:44;;;;;;;7.27;6.00;;;25.50;47.70;;;;;;5091618;28;20203;-49
2022/06/29 09:51:30;;;;;;;6.60;6.00;;;25.50;47.80;;;;;;5094697;28;20412;-48
2022/06/29 09:54:07;;;;;;;6.23;5.33;;;25.50;47.80;;;;;;5094751;28;20553;-51
2022/06/29 09:56:33;;;;;;;6.33;5.47;;;25.60;47.70;;;;;;5094760;28;20406;-48
2022/06/29 09:59:01;;;;;;;7.40;5.67;;;25.70;47.60;;;;;;5093889;28;20758;-49
2022/06/29 10:04:24;;;;;;;6.13;5.20;;;25.90;47.70;;;;;;5095208;28;20396;-49
2022/06/29 10:06:52;;;;;;;9.30;6.10;;;25.90;47.60;;;;;;5078711;28;20445;-49
2022/06/29 10:09:19;;;;;;;4.80;4.33;;;26.00;47.80;;;;;;5074969;28;20493;-48
2022/06/29 10:15:47;;;;;;;9.20;4.93;;;26.10;47.60;;;;;;5019780;28;20896;-48
2022/06/29 10:18:28;;;;;;;6.17;5.37;;;26.20;47.60;;;;;;5032559;28;20522;-47
2022/06/29 10:20:54;;;;;;;7.60;5.97;;;26.30;47.40;;;;;;5032274;28;20412;-48
2022/06/29 10:23:45;;;;;;;5.33;4.20;;;26.40;47.20;;;;;;5032308;28;20412;-48
2022/06/29 10:26:33;;;;;;;210.20;130.73;;;26.50;47.30;;;;;;5031569;28;20470;-46
2022/06/29 10:29:16;;;;;;;9.90;8.90;;;26.60;47.20;;;;;;5032287;28;20508;-48
2022/06/29 10:31:51;;;;;;;14.53;8.20;;;26.60;47.10;;;;;;5015665;28;20409;-48
2022/06/29 10:34:32;;;;;;;6.30;5.70;;;26.70;47.10;;;;;;5032097;28;20400;-48
2022/06/29 10:37:01;;;;;;;7.53;4.87;;;26.70;46.70;;;;;;5031683;28;20417;-49
2022/06/29 10:39:27;;;;;;;6.03;5.50;;;26.70;46.80;;;;;;5032222;28;20904;-49
2022/06/29 10:45:19;;;;;;;5.73;5.13;;;26.70;46.70;;;;;;5032235;28;20587;-49
2022/06/29 10:47:54;;;;;;;7.53;5.30;;;26.70;46.50;;;;;;5026665;28;20478;-49
2022/06/29 10:50:28;;;;;;;8.23;4.93;;;26.70;46.50;;;;;;5094458;28;20750;-48
2022/06/29 10:53:04;;;;;;;7.90;5.90;;;26.70;46.70;;;;;;5094324;28;20405;-49
2022/06/29 10:55:33;;;;;;;10.17;6.27;;;26.70;46.70;;;;;;5092853;28;20793;-48
2022/06/29 10:58:01;;;;;;;9.23;5.10;;;26.70;46.60;;;;;;5094146;28;20394;-48
2022/06/29 11:00:35;;;;;;;6.70;4.70;;;26.70;46.70;;;;;;5094552;28;20421;-49
2022/06/29 11:03:25;;;;;;;5.07;4.57;;;26.80;46.60;;;;;;5094387;28;20861;-49
2022/06/29 11:16:58;;;;;;;10.80;9.73;;;27.00;46.90;;;;;;5094047;28;20497;-49
2022/06/29 11:19:31;;;;;;;7.77;6.60;;;27.10;46.90;;;;;;5093857;28;20405;-47
2022/06/29 11:22:26;;;;;;;7.10;5.63;;;27.20;46.70;;;;;;5093406;28;20410;-49
2022/06/29 11:24:53;;;;;;;6.03;5.43;;;27.20;46.40;;;;;;5080113;28;20469;-49
2022/06/29 11:27:33;;;;;;;8.97;5.70;;;27.20;46.30;;;;;;5093495;28;20398;-49
2022/06/29 11:29:58;;;;;;;6.53;5.83;;;27.10;46.30;;;;;;5093628;28;20502;-50
2022/06/29 11:32:36;;;;;;;8.07;6.10;;;27.20;46.30;;;;;;5093548;28;20477;-50
2022/06/29 11:35:02;;;;;;;6.60;4.83;;;27.20;46.50;;;;;;5093215;28;20596;-48
2022/06/29 11:37:28;;;;;;;6.33;5.73;;;27.10;46.60;;;;;;5093311;28;20758;-48
2022/06/29 11:39:54;;;;;;;7.90;5.80;;;27.10;46.60;;;;;;5093490;28;20401;-48
2022/06/29 11:45:20;;;;;;;9.57;7.77;;;27.10;46.60;;;;;;5093049;28;20465;-49
2022/06/29 11:47:53;;;;;;;9.10;8.17;;;27.00;46.80;;;;;;5092987;28;20764;-48
2022/06/29 11:50:20;;;;;;;7.80;6.90;;;27.00;46.80;;;;;;5093095;28;20941;-48
2022/06/29 11:52:50;;;;;;;9.23;7.00;;;27.00;46.70;;;;;;5093056;28;20409;-49
2022/06/29 11:55:16;;;;;;;9.60;7.60;;;26.90;46.30;;;;;;5092788;28;20805;-48
2022/06/29 11:57:42;;;;;;;11.57;8.00;;;27.00;46.90;;;;;;5092751;28;20406;-48
2022/06/29 12:00:09;;;;;;;11.30;8.10;;;27.00;46.90;;;;;;5092916;28;20448;-49
2022/06/29 12:02:35;;;;;;;6.60;5.90;;;27.00;47.00;;;;;;5093170;28;20885;-50
2022/06/29 12:05:04;;;;;;;9.40;7.50;;;27.00;47.00;;;;;;5092544;28;20446;-50
2022/06/29 12:07:31;;;;;;;8.47;6.80;;;27.00;46.90;;;;;;5092512;28;20935;-48
2022/06/29 12:09:58;;;;;;;9.30;7.40;;;27.00;46.90;;;;;;5092402;28;20406;-49
2022/06/29 12:12:24;;;;;;;9.03;7.80;;;27.00;47.00;;;;;;5092623;28;20817;-49
2022/06/29 12:14:51;;;;;;;9.60;6.93;;;26.90;46.50;;;;;;5092574;28;20437;-50
2022/06/29 12:17:17;;;;;;;10.03;7.60;;;26.90;46.50;;;;;;5092361;28;20406;-49
2022/06/29 12:19:44;;;;;;;11.00;7.40;;;26.90;46.50;;;;;;5092723;28;20410;-47
2022/06/29 12:22:10;;;;;;;11.60;7.93;;;26.90;46.50;;;;;;5092822;28;20786;-48
2022/06/29 12:24:36;;;;;;;10.17;8.43;;;26.90;46.60;;;;;;5092317;28;20464;-49
2022/06/29 12:27:02;;;;;;;11.47;9.10;;;26.80;46.80;;;;;;5090882;28;20403;-49
2022/06/29 12:29:28;;;;;;;9.77;8.70;;;26.80;46.70;;;;;;5092540;28;20409;-46
2022/06/29 12:31:54;;;;;;;9.40;8.43;;;26.70;46.50;;;;;;5092869;28;20402;-49
2022/06/29 12:34:20;;;;;;;9.50;8.10;;;26.70;46.90;;;;;;5092429;28;20921;-49
2022/06/29 12:36:46;;;;;;;45.60;27.63;;;26.60;47.20;;;;;;5092407;28;20210;-49
2022/06/29 12:39:12;;;;;;;16.23;14.00;;;26.50;47.50;;;;;;5092645;28;20164;-48
2022/06/29 12:41:37;;;;;;;9.10;7.80;;;26.50;47.70;;;;;;5092281;28;20808;-47
2022/06/29 12:44:04;;;;;;;12.57;11.23;;;26.50;48.00;;;;;;5092257;28;20171;-48
2022/06/29 12:46:31;;;;;;;14.07;10.23;;;26.40;48.10;;;;;;5092191;28;20172;-49
2022/06/29 12:48:58;;;;;;;12.40;9.70;;;26.40;48.40;;;;;;5092300;28;20918;-48
2022/06/29 12:51:25;;;;;;;11.47;8.60;;;26.30;48.60;;;;;;5092463;28;20433;-48
2022/06/29 12:53:50;;;;;;;10.93;8.80;;;26.30;48.90;;;;;;5092353;28;20459;-49
2022/06/29 12:56:17;;;;;;;8.87;7.40;;;26.30;48.90;;;;;;5091749;28;20426;-47
2022/06/29 12:58:43;;;;;;;9.20;8.17;;;26.30;49.30;;;;;;5092833;28;20419;-49
2022/06/29 13:01:09;;;;;;;11.23;8.70;;;26.30;49.50;;;;;;5093027;28;20402;-46
2022/06/29 13:03:36;;;;;;;10.90;9.13;;;26.40;49.60;;;;;;5092840;28;20460;-48
2022/06/29 13:06:02;;;;;;;11.20;8.40;;;26.40;49.70;;;;;;5091989;28;20196;-48
2022/06/29 13:08:28;;;;;;;12.63;9.67;;;26.40;49.40;;;;;;5091997;28;20397;-49
2022/06/29 13:10:54;;;;;;;8.30;6.50;;;26.40;49.70;;;;;;5091956;28;20892;-48
2022/06/29 13:13:20;;;;;;;6.27;5.67;;;26.40;49.70;;;;;;5091991;28;20398;-47